createdAt,value
2022-10-17T00:00:17.436Z,91.51
2022-10-17T00:03:18.647Z,91.74
2022-10-17T00:05:47.596Z,91.74
2022-10-17T00:08:20.914Z,91.73
2022-10-17T00:11:01.990Z,91.68
2022-10-17T00:13:40.109Z,91.78
2022-10-17T00:16:07.325Z,91.94
2022-10-17T00:18:34.641Z,91.68
2022-10-17T00:21:05.628Z,91.77
2022-10-17T00:23:44.776Z,91.95
2022-10-17T00:26:11.763Z,92.04
2022-10-17T00:28:41.713Z,91.98
2022-10-17T00:31:11.510Z,91.82
2022-10-17T00:33:50.145Z,91.83
2022-10-17T00:37:19.931Z,91.96
2022-10-17T00:42:39.591Z,91.50
2022-10-17T00:44:35.195Z,91.82
2022-10-17T00:47:17.336Z,91.80
2022-10-17T00:50:31.903Z,91.80
2022-10-17T00:53:57.248Z,91.78
2022-10-17T00:56:45.936Z,91.70
2022-10-17T00:59:25.984Z,91.90
2022-10-17T01:02:01.343Z,91.97
2022-10-17T01:04:27.993Z,92.13
2022-10-17T01:06:56.099Z,91.79
2022-10-17T01:09:24.591Z,92.07
2022-10-17T01:12:27.452Z,92.20
2022-10-17T01:15:23.349Z,92.22
2022-10-17T01:18:09.416Z,92.33
2022-10-17T01:20:59.582Z,92.29
2022-10-17T01:23:28.970Z,92.24
2022-10-17T01:26:32.847Z,92.33
2022-10-17T01:29:21.194Z,91.95
2022-10-17T01:32:06.738Z,91.89
2022-10-17T01:35:21.260Z,91.68
2022-10-17T01:38:24.969Z,91.74
2022-10-17T01:41:14.766Z,91.61
2022-10-17T01:44:01.938Z,91.78
2022-10-17T01:46:40.059Z,91.66
2022-10-17T01:49:18.728Z,91.65
2022-10-17T01:51:56.535Z,91.51
2022-10-17T01:54:53.822Z,92.01
2022-10-17T01:57:42.426Z,92.05
2022-10-17T02:00:21.393Z,91.99
2022-10-17T02:02:56.580Z,91.95
2022-10-17T02:05:31.431Z,91.99
2022-10-17T02:07:58.315Z,92.05
2022-10-17T02:10:47.060Z,92.09
2022-10-17T02:13:27.278Z,91.95
2022-10-17T02:16:23.751Z,92.08
2022-10-17T02:19:45.182Z,91.96
2022-10-17T02:22:49.736Z,91.87
2022-10-17T02:25:27.226Z,91.77
2022-10-17T02:28:05.864Z,91.53
2022-10-17T02:30:45.458Z,91.42
2022-10-17T02:33:43.234Z,91.39
2022-10-17T02:36:24.971Z,91.53
2022-10-17T02:38:55.377Z,91.49
2022-10-17T02:44:00.111Z,91.61
2022-10-17T02:46:41.226Z,91.54
2022-10-17T02:49:22.668Z,91.51
2022-10-17T02:52:11.235Z,91.44
2022-10-17T02:58:04.091Z,91.55
2022-10-17T03:00:32.070Z,91.67
2022-10-17T03:03:01.239Z,91.96
2022-10-17T03:05:41.279Z,91.94
2022-10-17T03:08:08.117Z,92.09
2022-10-17T03:11:14.230Z,92.14
2022-10-17T03:13:54.687Z,91.96
2022-10-17T03:16:21.609Z,92.15
2022-10-17T03:18:50.084Z,92.11
2022-10-17T03:21:19.787Z,92.23
2022-10-17T03:23:58.118Z,92.22
2022-10-17T03:26:39.425Z,92.36
2022-10-17T03:29:08.568Z,92.27
2022-10-17T03:31:35.829Z,92.47
2022-10-17T03:34:05.383Z,92.42
2022-10-17T03:36:45.342Z,92.51
2022-10-17T03:39:16.475Z,92.43
2022-10-17T03:41:43.367Z,92.49
2022-10-17T03:44:10.131Z,92.55
2022-10-17T03:46:36.798Z,92.43
2022-10-17T03:49:04.183Z,92.31
2022-10-17T03:51:34.406Z,92.38
2022-10-17T03:54:03.925Z,92.32
2022-10-17T03:56:30.697Z,92.22
2022-10-17T03:59:05.040Z,92.54
2022-10-17T04:01:33.606Z,92.50
2022-10-17T04:04:02.078Z,92.44
2022-10-17T04:06:31.149Z,92.59
2022-10-17T04:08:59.278Z,92.50
2022-10-17T04:11:44.433Z,92.42
2022-10-17T04:14:11.849Z,92.62
2022-10-17T04:16:42.561Z,92.35
2022-10-17T04:19:13.502Z,92.35
2022-10-17T04:21:45.487Z,92.58
2022-10-17T04:24:15.159Z,92.67
2022-10-17T04:26:50.700Z,92.66
2022-10-17T04:29:20.834Z,92.72
2022-10-17T04:31:50.467Z,92.93
2022-10-17T04:34:20.707Z,93.36
2022-10-17T04:37:06.431Z,93.36
2022-10-17T04:39:33.693Z,93.27
2022-10-17T04:42:20.107Z,93.27
2022-10-17T04:44:47.281Z,93.14
2022-10-17T04:47:16.036Z,93.18
2022-10-17T04:49:43.395Z,93.12
2022-10-17T04:52:10.979Z,93.02
2022-10-17T04:54:41.002Z,92.90
2022-10-17T04:57:09.626Z,93.10
2022-10-17T04:59:36.925Z,93.07
2022-10-17T05:02:13.720Z,92.87
2022-10-17T05:04:40.575Z,93.04
2022-10-17T05:07:13.579Z,93.05
2022-10-17T05:09:47.628Z,93.04
2022-10-17T05:12:15.967Z,93.04
2022-10-17T05:15:11.706Z,93.20
2022-10-17T05:17:40.988Z,92.88
2022-10-17T05:20:11.967Z,92.77
2022-10-17T05:22:42.155Z,92.59
2022-10-17T05:25:12.326Z,92.45
2022-10-17T05:27:39.227Z,92.35
2022-10-17T05:30:09.221Z,92.05
2022-10-17T05:32:44.377Z,91.98
2022-10-17T05:35:16.241Z,91.82
2022-10-17T05:37:52.830Z,91.67
2022-10-17T05:40:27.121Z,91.67
2022-10-17T05:42:54.400Z,91.45
2022-10-17T05:45:23.408Z,91.18
2022-10-17T05:47:52.291Z,91.10
2022-10-17T05:50:21.525Z,90.97
2022-10-17T05:53:17.928Z,90.71
2022-10-17T05:56:07.396Z,90.51
2022-10-17T05:58:49.808Z,89.85
2022-10-17T06:01:28.156Z,89.57
2022-10-17T06:03:55.748Z,89.59
2022-10-17T06:06:22.492Z,89.25
2022-10-17T06:08:52.298Z,88.90
2022-10-17T06:11:59.765Z,88.56
2022-10-17T06:15:58.262Z,88.13
2022-10-17T06:18:07.647Z,87.87
2022-10-17T06:20:45.322Z,87.36
2022-10-17T06:23:51.807Z,87.08
2022-10-17T06:27:02.501Z,86.82
2022-10-17T06:29:32.508Z,86.69
2022-10-17T06:32:53.611Z,86.62
2022-10-17T06:43:06.237Z,85.90
2022-10-17T06:46:05.038Z,85.22
2022-10-17T06:49:28.577Z,84.57
2022-10-17T06:52:50.670Z,84.74
2022-10-17T06:55:47.522Z,84.32
2022-10-17T06:59:10.491Z,83.82
2022-10-17T07:01:59.879Z,83.51
2022-10-17T07:04:27.218Z,82.99
2022-10-17T07:09:41.124Z,82.42
2022-10-17T07:12:20.715Z,82.32
2022-10-17T07:20:33.600Z,82.19
2022-10-17T07:41:17.785Z,79.13
2022-10-17T07:47:59.910Z,79.10
2022-10-17T08:05:32.073Z,75.41
2022-10-17T08:08:13.703Z,74.44
2022-10-17T10:30:54.850Z,53.24
2022-10-17T10:38:11.402Z,53.49
2022-10-17T10:41:23.530Z,53.53
2022-10-17T11:10:33.059Z,51.61
2022-10-17T11:14:16.314Z,51.02
2022-10-17T11:30:07.282Z,51.23
2022-10-17T11:48:13.389Z,48.95
2022-10-17T12:27:52.707Z,48.13
2022-10-17T12:49:24.737Z,46.46
2022-10-17T12:58:01.567Z,45.90
2022-10-17T13:03:44.588Z,45.55
2022-10-17T13:06:46.831Z,46.27
2022-10-17T13:22:32.763Z,44.63
2022-10-17T13:25:56.396Z,44.79
2022-10-17T13:31:08.332Z,45.34
2022-10-17T19:26:46.149Z,79.04
2022-10-17T19:30:30.177Z,79.63
2022-10-17T19:32:58.229Z,79.89
2022-10-17T19:36:14.015Z,80.08
2022-10-17T19:40:31.028Z,80.62
2022-10-17T19:43:21.977Z,81.25
2022-10-17T19:46:45.353Z,81.96
2022-10-17T19:50:41.220Z,82.91
2022-10-17T19:53:44.447Z,83.52
2022-10-17T19:56:35.676Z,84.26
2022-10-17T20:03:06.873Z,85.06
2022-10-17T20:05:50.500Z,85.08
2022-10-17T20:11:30.545Z,86.11
2022-10-17T20:14:34.373Z,86.35
2022-10-17T20:17:36.588Z,86.64
2022-10-17T20:26:46.945Z,87.02
2022-10-17T20:29:50.914Z,87.60
2022-10-17T20:32:24.249Z,87.73
2022-10-17T20:35:11.995Z,87.98
2022-10-17T20:38:26.215Z,88.57
2022-10-17T20:41:15.238Z,88.50
2022-10-17T20:48:19.048Z,89.08
2022-10-17T20:51:17.524Z,89.40
2022-10-17T20:54:28.765Z,89.52
2022-10-17T20:57:14.402Z,89.38
2022-10-17T21:10:43.863Z,89.03
2022-10-17T21:19:12.877Z,89.50
2022-10-17T21:21:29.744Z,89.83
2022-10-17T21:24:24.552Z,90.01
2022-10-17T21:27:00.779Z,90.08
2022-10-17T21:29:39.919Z,90.07
